createdAt,value
2023-05-19T00:02:34.847Z,14.26
2023-05-19T00:07:37.215Z,14.30
2023-05-19T00:12:38.915Z,14.25
2023-05-19T00:17:40.894Z,14.30
2023-05-19T00:22:42.899Z,14.31
2023-05-19T00:27:44.909Z,14.10
2023-05-19T00:32:46.928Z,14.03
2023-05-19T00:37:49.082Z,13.71
2023-05-19T00:42:51.063Z,13.62
2023-05-19T00:47:53.020Z,13.43
2023-05-19T00:52:55.835Z,13.49
2023-05-19T00:57:57.787Z,13.31
2023-05-19T01:02:59.866Z,13.18
2023-05-19T01:08:01.826Z,13.07
2023-05-19T01:13:04.121Z,12.87
2023-05-19T01:18:10.086Z,12.79
2023-05-19T01:23:32.701Z,12.69
2023-05-19T01:29:03.185Z,12.32
2023-05-19T01:34:05.130Z,12.36
2023-05-19T01:39:07.102Z,11.99
2023-05-19T01:44:09.327Z,11.60
2023-05-19T01:49:11.506Z,11.57
2023-05-19T01:54:13.520Z,11.54
2023-05-19T01:59:42.378Z,11.53
2023-05-19T02:04:48.000Z,11.33
2023-05-19T02:10:27.972Z,11.22
2023-05-19T02:15:32.294Z,11.09
2023-05-19T02:20:34.532Z,11.10
2023-05-19T02:25:36.819Z,11.11
2023-05-19T02:30:38.764Z,11.13
2023-05-19T02:35:40.633Z,10.99
2023-05-19T02:40:42.592Z,10.83
2023-05-19T02:45:44.641Z,10.95
2023-05-19T02:50:46.637Z,10.93
2023-05-19T02:55:48.570Z,10.86
2023-05-19T03:00:50.666Z,10.83
2023-05-19T03:05:52.670Z,10.78
2023-05-19T03:10:54.751Z,10.48
2023-05-19T03:15:56.745Z,10.77
2023-05-19T03:21:00.325Z,10.82
2023-05-19T03:26:02.369Z,10.91
2023-05-19T03:31:04.329Z,10.86
2023-05-19T03:36:07.101Z,10.84
2023-05-19T03:41:09.011Z,10.79
2023-05-19T03:46:11.026Z,10.78
2023-05-19T03:51:13.152Z,10.68
2023-05-19T03:56:15.131Z,10.88
2023-05-19T04:01:17.149Z,10.89
2023-05-19T04:06:19.185Z,10.99
2023-05-19T04:11:21.245Z,11.05
2023-05-19T04:16:23.398Z,11.12
2023-05-19T04:21:25.589Z,11.09
2023-05-19T04:26:27.871Z,11.11
2023-05-19T04:31:29.808Z,11.05
2023-05-19T04:36:31.879Z,11.29
2023-05-19T04:41:33.978Z,11.34
2023-05-19T04:46:35.925Z,11.28
2023-05-19T04:51:38.128Z,11.24
2023-05-19T04:56:39.986Z,11.43
2023-05-19T05:01:41.857Z,11.61
2023-05-19T05:06:43.882Z,11.63
2023-05-19T05:11:45.942Z,11.54
2023-05-19T05:16:48.245Z,11.67
2023-05-19T05:21:51.178Z,11.85
2023-05-19T05:26:54.146Z,11.81
2023-05-19T05:31:56.139Z,11.78
2023-05-19T05:36:58.056Z,12.13
2023-05-19T05:41:59.971Z,12.14
2023-05-19T05:47:03.077Z,12.38
2023-05-19T05:52:06.762Z,12.62
2023-05-19T05:57:09.760Z,12.65
2023-05-19T06:02:11.695Z,12.53
2023-05-19T06:07:13.664Z,12.56
2023-05-19T06:12:16.002Z,12.16
2023-05-19T06:17:17.744Z,12.51
2023-05-19T06:22:19.547Z,13.04
2023-05-19T06:27:21.471Z,13.84
2023-05-19T06:32:23.602Z,13.83
2023-05-19T06:37:25.525Z,13.74
2023-05-19T06:42:27.412Z,14.03
2023-05-19T06:47:29.390Z,13.99
2023-05-19T06:52:31.341Z,14.14
2023-05-19T06:57:33.271Z,13.77
2023-05-19T07:02:35.336Z,14.17
2023-05-19T07:07:37.278Z,14.33
2023-05-19T07:12:39.197Z,14.97
2023-05-19T07:17:41.112Z,15.03
2023-05-19T07:22:43.086Z,15.99
2023-05-19T07:27:45.141Z,16.30
2023-05-19T07:32:47.008Z,16.70
2023-05-19T07:37:49.701Z,18.57
2023-05-19T07:42:51.945Z,19.93
2023-05-19T07:47:54.202Z,19.28
2023-05-19T07:52:56.415Z,19.44
2023-05-19T07:57:58.346Z,19.20
2023-05-19T08:03:00.259Z,18.74
2023-05-19T08:08:02.592Z,18.42
2023-05-19T08:13:04.612Z,18.01
2023-05-19T08:18:06.606Z,16.52
2023-05-19T08:23:08.339Z,15.96
2023-05-19T08:28:10.442Z,16.14
2023-05-19T08:33:12.624Z,15.79
2023-05-19T08:38:14.431Z,15.71
2023-05-19T08:43:16.364Z,15.87
2023-05-19T08:48:18.488Z,15.86
2023-05-19T08:53:32.485Z,16.08
2023-05-19T08:58:36.082Z,15.85
2023-05-19T09:03:38.121Z,16.10
2023-05-19T09:08:40.418Z,16.11
2023-05-19T09:13:42.258Z,16.16
2023-05-19T09:18:56.939Z,16.16
2023-05-19T09:24:03.865Z,16.57
2023-05-19T09:29:16.213Z,16.52
2023-05-19T09:34:18.731Z,16.68
2023-05-19T09:39:21.574Z,17.09
2023-05-19T09:44:24.206Z,16.66
2023-05-19T09:49:27.534Z,16.70
2023-05-19T09:54:29.953Z,16.78
2023-05-19T09:59:33.717Z,17.41
2023-05-19T10:04:36.193Z,17.90
2023-05-19T10:09:38.132Z,18.02
2023-05-19T10:14:40.092Z,17.79
2023-05-19T10:19:41.814Z,18.06
2023-05-19T10:24:43.763Z,18.25
2023-05-19T10:29:46.293Z,18.49
2023-05-19T10:35:06.349Z,18.65
2023-05-19T10:40:12.166Z,18.65
2023-05-19T10:45:18.887Z,18.93
2023-05-19T10:50:20.979Z,18.90
2023-05-19T10:56:01.041Z,18.59
2023-05-19T11:01:03.113Z,18.87
2023-05-19T11:06:29.780Z,18.83
2023-05-19T11:11:55.042Z,18.61
2023-05-19T11:16:57.707Z,18.65
2023-05-19T11:22:10.056Z,19.18
2023-05-19T11:27:31.838Z,19.06
2023-05-19T11:32:35.489Z,19.19
2023-05-19T11:37:37.541Z,19.38
2023-05-19T11:42:39.161Z,18.66
2023-05-19T11:47:56.503Z,18.87
2023-05-19T11:53:03.439Z,19.13
2023-05-19T11:58:06.102Z,18.66
2023-05-19T12:03:08.741Z,18.79
2023-05-19T12:08:14.263Z,18.96
2023-05-19T12:13:16.435Z,18.48
2023-05-19T12:18:18.231Z,18.58
2023-05-19T12:23:20.184Z,18.15
2023-05-19T12:28:21.957Z,18.45
2023-05-19T12:33:23.894Z,18.32
2023-05-19T12:38:25.995Z,18.56
2023-05-19T12:43:28.058Z,18.69
2023-05-19T12:48:30.037Z,18.49
2023-05-19T12:53:32.894Z,18.54
2023-05-19T12:58:35.004Z,18.58
2023-05-19T13:03:40.826Z,18.57
2023-05-19T13:08:42.905Z,17.99
2023-05-19T13:13:45.023Z,18.24
2023-05-19T13:18:47.080Z,18.28
2023-05-19T13:23:48.817Z,17.96
2023-05-19T13:28:50.644Z,17.87
2023-05-19T13:33:52.699Z,18.02
2023-05-19T13:38:54.710Z,18.06
2023-05-19T13:43:59.761Z,18.04
2023-05-19T13:49:01.870Z,18.05
2023-05-19T13:54:03.606Z,18.02
2023-05-19T13:59:05.517Z,18.19
2023-05-19T14:04:07.625Z,18.19
2023-05-19T14:09:09.681Z,17.85
2023-05-19T14:14:11.817Z,17.85
2023-05-19T14:19:14.081Z,18.56
2023-05-19T14:24:16.021Z,18.61
2023-05-19T14:29:19.457Z,18.70
2023-05-19T14:34:21.442Z,18.30
2023-05-19T14:39:23.420Z,17.82
2023-05-19T14:44:30.068Z,18.21
2023-05-19T14:49:32.042Z,18.43
2023-05-19T14:54:34.109Z,18.69
2023-05-19T14:59:38.972Z,18.49
2023-05-19T15:04:40.801Z,18.33
2023-05-19T15:09:42.788Z,18.20
2023-05-19T15:14:44.546Z,17.95
2023-05-19T15:19:46.562Z,18.03
2023-05-19T15:24:58.101Z,17.96
2023-05-19T15:30:00.215Z,17.88
2023-05-19T15:35:02.056Z,18.01
2023-05-19T15:40:06.039Z,18.04
2023-05-19T15:45:08.802Z,17.91
2023-05-19T15:50:11.196Z,17.68
2023-05-19T15:55:13.186Z,17.49
2023-05-19T16:00:15.505Z,17.47
2023-05-19T16:05:17.783Z,17.50
2023-05-19T16:10:19.530Z,17.22
2023-05-19T16:15:22.147Z,17.17
2023-05-19T16:20:24.145Z,16.84
2023-05-19T16:25:26.121Z,16.74
2023-05-19T16:30:28.145Z,16.60
2023-05-19T16:35:30.199Z,16.15
2023-05-19T16:40:32.553Z,16.09
2023-05-19T16:45:34.888Z,15.64
2023-05-19T16:50:37.292Z,15.53
2023-05-19T16:55:39.558Z,15.19
2023-05-19T17:00:41.506Z,15.05
2023-05-19T17:05:43.516Z,14.76
2023-05-19T17:10:45.580Z,14.53
2023-05-19T17:15:47.585Z,14.34
2023-05-19T17:20:49.561Z,14.08
2023-05-19T17:25:54.654Z,13.91
2023-05-19T17:30:56.695Z,13.79
2023-05-19T17:35:58.768Z,13.58
2023-05-19T17:41:01.470Z,13.46
2023-05-19T17:46:03.902Z,13.31
2023-05-19T17:51:06.208Z,13.08
2023-05-19T17:56:08.801Z,12.97
2023-05-19T18:01:11.037Z,12.82
2023-05-19T18:06:12.995Z,12.74
2023-05-19T18:11:15.285Z,12.64
2023-05-19T18:16:17.395Z,12.54
2023-05-19T18:21:19.447Z,12.47
2023-05-19T18:26:21.428Z,12.42
2023-05-19T18:31:23.492Z,12.33
2023-05-19T18:36:25.579Z,12.27
2023-05-19T18:41:27.832Z,12.09
2023-05-19T18:46:31.002Z,12.01
2023-05-19T18:51:33.043Z,11.86
2023-05-19T18:56:34.943Z,11.75
2023-05-19T19:01:37.404Z,11.64
2023-05-19T19:06:40.174Z,11.57
2023-05-19T19:11:42.963Z,11.38
2023-05-19T19:16:46.351Z,11.35
2023-05-19T19:21:48.421Z,11.23
2023-05-19T19:26:50.673Z,11.07
2023-05-19T19:31:52.763Z,10.94
2023-05-19T19:36:54.856Z,10.91
2023-05-19T19:41:56.854Z,10.84
2023-05-19T19:46:58.962Z,10.79
2023-05-19T19:52:01.100Z,10.75
2023-05-19T19:57:03.077Z,10.72
2023-05-19T20:02:05.220Z,10.72
2023-05-19T20:07:07.306Z,10.74
2023-05-19T20:12:09.350Z,10.61
2023-05-19T20:17:11.343Z,10.65
2023-05-19T20:22:13.383Z,10.69
2023-05-19T20:27:15.396Z,10.67
2023-05-19T20:32:17.406Z,10.72
2023-05-19T20:37:19.500Z,10.72
2023-05-19T20:42:21.469Z,10.76
2023-05-19T20:47:23.639Z,10.89
2023-05-19T20:52:25.688Z,10.96
2023-05-19T20:57:28.925Z,11.06
2023-05-19T21:02:31.236Z,11.07
2023-05-19T21:07:33.237Z,11.03
2023-05-19T21:12:35.203Z,11.00
2023-05-19T21:17:37.405Z,10.92
2023-05-19T21:22:39.426Z,10.97
2023-05-19T21:27:41.435Z,10.95
2023-05-19T21:32:43.519Z,10.84
2023-05-19T21:37:45.699Z,10.82
2023-05-19T21:42:47.639Z,10.92
2023-05-19T21:47:49.648Z,10.95
2023-05-19T21:52:51.751Z,10.91
2023-05-19T21:57:53.749Z,10.92
2023-05-19T22:02:55.977Z,10.66
2023-05-19T22:07:58.313Z,10.68
2023-05-19T22:13:00.360Z,10.73
2023-05-19T22:18:02.355Z,10.67
2023-05-19T22:23:04.624Z,10.60
2023-05-19T22:28:06.742Z,10.76
2023-05-19T22:33:09.127Z,10.83
2023-05-19T22:38:11.119Z,10.86
2023-05-19T22:43:13.343Z,10.73
2023-05-19T22:48:15.352Z,10.63
2023-05-19T22:53:17.396Z,10.60
2023-05-19T22:58:19.331Z,10.68
2023-05-19T23:03:21.374Z,10.69
2023-05-19T23:08:23.439Z,10.71
2023-05-19T23:13:25.459Z,10.68
2023-05-19T23:18:27.555Z,10.61
2023-05-19T23:23:29.528Z,10.67
2023-05-19T23:28:31.483Z,10.49
2023-05-19T23:33:33.466Z,10.56
2023-05-19T23:38:36.017Z,10.34
2023-05-19T23:43:38.049Z,10.35
2023-05-19T23:48:40.080Z,10.38
2023-05-19T23:53:42.037Z,10.46
2023-05-19T23:58:44.017Z,10.40
